sensor_id;sensor_type;location;lat;lon;timestamp;pressure;altitude;pressure_sealevel;temperature;humidity
70458;BME280;57919;56.194;95.716;2022-10-23T00:05:54;97876.66;;;7.65;68.28
70458;BME280;57919;56.194;95.716;2022-10-23T00:15:56;97901.97;;;7.72;67.98
70458;BME280;57919;56.194;95.716;2022-10-23T00:25:58;97894.84;;;7.81;67.98
70458;BME280;57919;56.194;95.716;2022-10-23T00:36:04;97872.44;;;7.81;67.88
70458;BME280;57919;56.194;95.716;2022-10-23T00:46:06;97850.06;;;7.80;67.90
70458;BME280;57919;56.194;95.716;2022-10-23T00:56:08;97851.06;;;7.79;67.46
70458;BME280;57919;56.194;95.716;2022-10-23T01:16:39;97856.47;;;7.97;67.85
70458;BME280;57919;56.194;95.716;2022-10-23T01:26:59;97864.19;;;8.09;67.01
70458;BME280;57919;56.194;95.716;2022-10-23T01:37:03;97871.56;;;8.07;66.94
70458;BME280;57919;56.194;95.716;2022-10-23T01:47:08;97900.34;;;8.07;67.43
70458;BME280;57919;56.194;95.716;2022-10-23T01:57:25;97909.50;;;8.14;67.90
70458;BME280;57919;56.194;95.716;2022-10-23T02:07:29;97889.56;;;8.07;68.58
70458;BME280;57919;56.194;95.716;2022-10-23T02:27:54;97874.34;;;7.70;70.60
70458;BME280;57919;56.194;95.716;2022-10-23T02:38:02;97882.00;;;7.93;70.82
70458;BME280;57919;56.194;95.716;2022-10-23T02:48:21;97867.78;;;8.00;71.49
70458;BME280;57919;56.194;95.716;2022-10-23T03:08:57;97821.38;;;8.24;72.58
70458;BME280;57919;56.194;95.716;2022-10-23T03:19:00;97767.44;;;8.34;73.22
70458;BME280;57919;56.194;95.716;2022-10-23T03:29:04;97744.06;;;8.60;73.11
70458;BME280;57919;56.194;95.716;2022-10-23T03:39:06;97744.41;;;8.65;73.48
70458;BME280;57919;56.194;95.716;2022-10-23T03:49:08;97722.84;;;8.65;73.71
70458;BME280;57919;56.194;95.716;2022-10-23T03:59:10;97716.19;;;8.78;74.36
70458;BME280;57919;56.194;95.716;2022-10-23T04:09:12;97690.78;;;8.88;74.13
70458;BME280;57919;56.194;95.716;2022-10-23T04:19:16;97684.97;;;9.09;74.29
70458;BME280;57919;56.194;95.716;2022-10-23T04:29:18;97671.88;;;9.30;74.06
70458;BME280;57919;56.194;95.716;2022-10-23T04:39:23;97655.88;;;9.45;74.62
70458;BME280;57919;56.194;95.716;2022-10-23T04:49:25;97629.06;;;9.60;75.05
70458;BME280;57919;56.194;95.716;2022-10-23T05:00:08;97611.78;;;10.10;74.17
70458;BME280;57919;56.194;95.716;2022-10-23T05:10:29;97592.38;;;10.06;74.60
70458;BME280;57919;56.194;95.716;2022-10-23T05:20:41;97576.03;;;9.91;74.94
70458;BME280;57919;56.194;95.716;2022-10-23T05:30:46;97533.19;;;9.72;75.88
70458;BME280;57919;56.194;95.716;2022-10-23T05:40:50;97498.38;;;9.93;74.92
70458;BME280;57919;56.194;95.716;2022-10-23T05:50:54;97478.72;;;10.24;73.91
70458;BME280;57919;56.194;95.716;2022-10-23T06:01:12;97471.53;;;10.39;73.24
70458;BME280;57919;56.194;95.716;2022-10-23T06:11:36;97469.81;;;10.46;73.44
70458;BME280;57919;56.194;95.716;2022-10-23T06:21:44;97450.47;;;10.57;73.29
70458;BME280;57919;56.194;95.716;2022-10-23T06:31:49;97434.19;;;10.65;72.94
70458;BME280;57919;56.194;95.716;2022-10-23T06:41:52;97439.31;;;10.60;73.45
70458;BME280;57919;56.194;95.716;2022-10-23T06:52:13;97426.25;;;10.87;71.79
70458;BME280;57919;56.194;95.716;2022-10-23T07:02:16;97414.22;;;11.12;70.22
70458;BME280;57919;56.194;95.716;2022-10-23T07:12:18;97403.34;;;11.35;68.35
70458;BME280;57919;56.194;95.716;2022-10-23T07:22:26;97389.34;;;11.46;67.00
70458;BME280;57919;56.194;95.716;2022-10-23T07:32:42;97388.22;;;11.41;66.39
70458;BME280;57919;56.194;95.716;2022-10-23T07:43:03;97356.47;;;11.35;65.85
70458;BME280;57919;56.194;95.716;2022-10-23T07:53:05;97378.97;;;11.64;65.88
70458;BME280;57919;56.194;95.716;2022-10-23T08:03:21;97368.50;;;11.76;65.69
70458;BME280;57919;56.194;95.716;2022-10-23T08:13:23;97365.56;;;12.22;63.63
70458;BME280;57919;56.194;95.716;2022-10-23T08:23:31;97372.72;;;13.15;60.89
70458;BME280;57919;56.194;95.716;2022-10-23T08:33:33;97380.84;;;13.64;59.68
70458;BME280;57919;56.194;95.716;2022-10-23T08:43:42;97405.22;;;13.85;59.01
70458;BME280;57919;56.194;95.716;2022-10-23T08:54:11;97392.81;;;14.17;58.77
70458;BME280;57919;56.194;95.716;2022-10-23T09:04:15;97401.31;;;14.01;58.25
70458;BME280;57919;56.194;95.716;2022-10-23T09:24:42;97430.22;;;14.09;56.54
70458;BME280;57919;56.194;95.716;2022-10-23T09:34:54;97428.53;;;14.08;53.70
70458;BME280;57919;56.194;95.716;2022-10-23T09:44:56;97447.34;;;14.44;51.89
70458;BME280;57919;56.194;95.716;2022-10-23T09:55:00;97448.56;;;14.41;51.32
70458;BME280;57919;56.194;95.716;2022-10-23T10:05:34;97419.44;;;14.29;51.57
70458;BME280;57919;56.194;95.716;2022-10-23T10:15:49;97454.31;;;14.18;51.28
70458;BME280;57919;56.194;95.716;2022-10-23T10:56:30;97470.03;;;13.88;51.50
70458;BME280;57919;56.194;95.716;2022-10-23T11:06:35;97485.31;;;13.89;50.08
70458;BME280;57919;56.194;95.716;2022-10-23T11:16:39;97477.91;;;13.77;49.67
70458;BME280;57919;56.194;95.716;2022-10-23T11:37:18;97506.31;;;13.74;48.06
70458;BME280;57919;56.194;95.716;2022-10-23T11:57:28;97521.31;;;13.42;49.84
70458;BME280;57919;56.194;95.716;2022-10-23T12:07:36;97544.06;;;13.41;48.60
70458;BME280;57919;56.194;95.716;2022-10-23T12:17:40;97571.28;;;13.27;48.91
70458;BME280;57919;56.194;95.716;2022-10-23T12:27:59;97593.97;;;13.19;48.43
70458;BME280;57919;56.194;95.716;2022-10-23T12:38:23;97604.06;;;13.10;47.40
70458;BME280;57919;56.194;95.716;2022-10-23T12:48:26;97618.22;;;13.06;46.98
70458;BME280;57919;56.194;95.716;2022-10-23T12:58:30;97613.53;;;13.14;43.94
70458;BME280;57919;56.194;95.716;2022-10-23T13:08:41;97646.59;;;13.03;44.58
70458;BME280;57919;56.194;95.716;2022-10-23T13:19:04;97649.78;;;12.92;44.32
70458;BME280;57919;56.194;95.716;2022-10-23T13:29:37;97646.16;;;12.85;43.71
70458;BME280;57919;56.194;95.716;2022-10-23T13:39:38;97649.31;;;12.74;43.77
70458;BME280;57919;56.194;95.716;2022-10-23T13:49:40;97649.31;;;12.74;43.75
70458;BME280;57919;56.194;95.716;2022-10-23T13:59:42;97682.34;;;12.63;44.99
70458;BME280;57919;56.194;95.716;2022-10-23T14:09:44;97672.97;;;12.50;44.86
70458;BME280;57919;56.194;95.716;2022-10-23T14:19:46;97688.31;;;12.43;44.73
70458;BME280;57919;56.194;95.716;2022-10-23T14:29:50;97712.50;;;12.30;44.86
70458;BME280;57919;56.194;95.716;2022-10-23T14:39:53;97736.75;;;12.09;45.14
70458;BME280;57919;56.194;95.716;2022-10-23T14:49:55;97765.66;;;12.16;43.35
70458;BME280;57919;56.194;95.716;2022-10-23T14:59:57;97770.66;;;12.27;40.12
70458;BME280;57919;56.194;95.716;2022-10-23T15:09:59;97791.81;;;12.32;38.12
70458;BME280;57919;56.194;95.716;2022-10-23T15:20:01;97805.41;;;12.24;37.17
70458;BME280;57919;56.194;95.716;2022-10-23T15:30:04;97823.47;;;12.09;37.50
70458;BME280;57919;56.194;95.716;2022-10-23T15:40:07;97834.47;;;11.84;37.91
70458;BME280;57919;56.194;95.716;2022-10-23T15:50:09;97870.13;;;11.49;39.40
70458;BME280;57919;56.194;95.716;2022-10-23T16:00:12;97855.59;;;11.42;37.04
70458;BME280;57919;56.194;95.716;2022-10-23T16:10:16;97912.44;;;11.58;33.98
70458;BME280;57919;56.194;95.716;2022-10-23T16:20:19;97912.66;;;11.24;34.83
70458;BME280;57919;56.194;95.716;2022-10-23T16:30:21;98003.53;;;11.18;36.00
70458;BME280;57919;56.194;95.716;2022-10-23T16:40:24;98107.47;;;10.41;44.90
70458;BME280;57919;56.194;95.716;2022-10-23T16:50:45;98182.22;;;9.45;49.34
70458;BME280;57919;56.194;95.716;2022-10-23T17:01:04;98176.19;;;8.61;52.04
70458;BME280;57919;56.194;95.716;2022-10-23T17:11:14;98247.59;;;8.28;49.10
70458;BME280;57919;56.194;95.716;2022-10-23T17:21:18;98332.13;;;7.98;47.90
70458;BME280;57919;56.194;95.716;2022-10-23T17:31:26;98395.88;;;7.78;47.05
70458;BME280;57919;56.194;95.716;2022-10-23T17:41:29;98432.56;;;7.39;46.09
70458;BME280;57919;56.194;95.716;2022-10-23T17:51:33;98485.84;;;7.24;45.49
70458;BME280;57919;56.194;95.716;2022-10-23T18:01:35;98555.56;;;5.18;55.88
70458;BME280;57919;56.194;95.716;2022-10-23T18:11:39;98659.66;;;4.52;57.66
70458;BME280;57919;56.194;95.716;2022-10-23T18:21:41;98694.94;;;4.21;57.22
70458;BME280;57919;56.194;95.716;2022-10-23T18:31:44;98771.19;;;4.28;55.05
70458;BME280;57919;56.194;95.716;2022-10-23T18:41:47;98827.38;;;4.15;54.41
70458;BME280;57919;56.194;95.716;2022-10-23T18:51:49;98857.75;;;4.02;54.65
70458;BME280;57919;56.194;95.716;2022-10-23T19:01:51;98934.38;;;3.90;54.81
70458;BME280;57919;56.194;95.716;2022-10-23T19:11:53;98970.25;;;3.73;58.35
70458;BME280;57919;56.194;95.716;2022-10-23T19:21:55;99016.50;;;3.18;60.16
70458;BME280;57919;56.194;95.716;2022-10-23T19:31:58;99090.72;;;2.99;61.83
70458;BME280;57919;56.194;95.716;2022-10-23T19:42:00;99113.28;;;2.64;63.78
70458;BME280;57919;56.194;95.716;2022-10-23T19:52:02;99174.88;;;2.45;64.11
70458;BME280;57919;56.194;95.716;2022-10-23T20:02:04;99222.06;;;2.44;63.54
70458;BME280;57919;56.194;95.716;2022-10-23T20:12:06;99242.56;;;2.44;63.17
70458;BME280;57919;56.194;95.716;2022-10-23T20:22:08;99263.19;;;2.24;63.57
70458;BME280;57919;56.194;95.716;2022-10-23T20:32:10;99280.22;;;2.22;63.99
70458;BME280;57919;56.194;95.716;2022-10-23T20:42:12;99307.41;;;2.13;64.06
70458;BME280;57919;56.194;95.716;2022-10-23T20:52:14;99335.81;;;2.14;63.50
70458;BME280;57919;56.194;95.716;2022-10-23T21:02:15;99353.59;;;2.31;61.92
70458;BME280;57919;56.194;95.716;2022-10-23T21:12:18;99382.97;;;2.31;61.82
70458;BME280;57919;56.194;95.716;2022-10-23T21:22:19;99409.03;;;2.43;61.59
70458;BME280;57919;56.194;95.716;2022-10-23T21:32:21;99410.91;;;2.23;61.71
70458;BME280;57919;56.194;95.716;2022-10-23T21:42:23;99428.50;;;2.10;62.03
70458;BME280;57919;56.194;95.716;2022-10-23T21:52:25;99459.09;;;2.03;61.69
70458;BME280;57919;56.194;95.716;2022-10-23T22:02:27;99487.09;;;1.94;61.00
70458;BME280;57919;56.194;95.716;2022-10-23T22:12:29;99498.56;;;1.78;62.57
70458;BME280;57919;56.194;95.716;2022-10-23T22:22:30;99508.28;;;1.79;62.90
70458;BME280;57919;56.194;95.716;2022-10-23T22:32:34;99505.63;;;1.41;63.38
70458;BME280;57919;56.194;95.716;2022-10-23T22:42:36;99536.81;;;1.39;63.71
70458;BME280;57919;56.194;95.716;2022-10-23T22:52:39;99552.03;;;1.56;63.34
70458;BME280;57919;56.194;95.716;2022-10-23T23:02:40;99567.44;;;1.49;62.61
70458;BME280;57919;56.194;95.716;2022-10-23T23:12:43;99587.91;;;1.49;62.26
70458;BME280;57919;56.194;95.716;2022-10-23T23:22:44;99596.28;;;1.60;61.41
70458;BME280;57919;56.194;95.716;2022-10-23T23:32:47;99602.94;;;1.70;60.75
70458;BME280;57919;56.194;95.716;2022-10-23T23:42:51;99616.84;;;1.77;60.45
70458;BME280;57919;56.194;95.716;2022-10-23T23:52:53;99631.91;;;1.78;60.34
